createdAt,value
2023-03-20T00:01:15.813Z,66.20
2023-03-20T00:03:45.981Z,63.20
2023-03-20T00:06:17.629Z,61.58
2023-03-20T00:08:47.860Z,64.75
2023-03-20T00:11:30.519Z,66.55
2023-03-20T00:14:02.281Z,64.05
2023-03-20T00:16:34.856Z,65.90
2023-03-20T00:19:06.147Z,61.85
2023-03-20T00:21:34.558Z,64.18
2023-03-20T00:24:02.822Z,62.22
2023-03-20T00:26:38.157Z,62.38
2023-03-20T00:29:08.619Z,63.28
2023-03-20T00:31:40.886Z,57.67
2023-03-20T00:34:16.067Z,63.53
2023-03-20T00:36:47.431Z,61.42
2023-03-20T00:39:15.712Z,63.30
2023-03-20T00:41:49.445Z,62.40
2023-03-20T00:44:24.412Z,55.83
2023-03-20T00:46:57.542Z,60.72
2023-03-20T00:49:32.370Z,63.40
2023-03-20T00:52:03.391Z,58.63
2023-03-20T00:54:32.267Z,59.03
2023-03-20T00:57:07.494Z,59.80
2023-03-20T00:59:41.271Z,59.63
2023-03-20T01:02:12.977Z,59.10
2023-03-20T01:04:43.621Z,55.85
2023-03-20T01:07:16.304Z,64.93
2023-03-20T01:09:44.557Z,62.55
2023-03-20T01:12:15.391Z,60.08
2023-03-20T01:14:44.380Z,54.10
2023-03-20T01:17:21.173Z,56.15
2023-03-20T01:19:51.287Z,63.00
2023-03-20T01:22:19.987Z,53.38
2023-03-20T01:24:48.583Z,56.95
2023-03-20T01:27:20.598Z,54.78
2023-03-20T01:29:49.097Z,54.75
2023-03-20T01:32:19.985Z,56.50
2023-03-20T01:34:53.055Z,57.70
2023-03-20T01:37:27.316Z,58.83
2023-03-20T01:39:58.534Z,65.95
2023-03-20T01:42:27.570Z,58.65
2023-03-20T01:44:56.071Z,59.83
2023-03-20T01:47:27.730Z,59.33
2023-03-20T01:50:32.299Z,58.78
2023-03-20T01:53:15.097Z,61.45
2023-03-20T01:55:51.668Z,56.97
2023-03-20T01:58:25.562Z,61.70
2023-03-20T02:00:54.037Z,55.08
2023-03-20T02:03:24.326Z,64.03
2023-03-20T02:06:13.100Z,58.78
2023-03-20T02:09:00.164Z,60.85
2023-03-20T02:11:33.616Z,59.92
2023-03-20T02:14:03.644Z,64.38
2023-03-20T02:16:40.698Z,61.50
2023-03-20T02:19:27.020Z,68.88
2023-03-20T02:22:48.901Z,57.83
2023-03-20T02:26:25.290Z,51.23
2023-03-20T02:30:02.651Z,62.45
2023-03-20T02:33:12.890Z,51.90
2023-03-20T02:36:26.324Z,44.77
2023-03-20T02:39:21.905Z,46.90
2023-03-20T02:42:01.149Z,45.17
2023-03-20T02:44:41.838Z,37.57
2023-03-20T02:47:22.561Z,35.53
2023-03-20T02:49:59.973Z,32.50
2023-03-20T02:52:45.124Z,29.87
2023-03-20T02:55:22.387Z,29.57
2023-03-20T02:58:00.564Z,31.93
2023-03-20T03:00:36.566Z,25.80
2023-03-20T03:03:13.831Z,28.37
2023-03-20T03:05:50.256Z,25.92
2023-03-20T03:08:26.048Z,25.93
2023-03-20T03:11:02.343Z,28.53
2023-03-20T03:13:35.179Z,26.47
2023-03-20T03:16:11.251Z,25.57
2023-03-20T03:18:42.660Z,24.57
2023-03-20T03:21:15.760Z,22.73
2023-03-20T03:23:49.186Z,21.83
2023-03-20T03:26:25.796Z,23.73
2023-03-20T03:29:02.613Z,24.53
2023-03-20T03:31:32.692Z,22.60
2023-03-20T03:34:02.535Z,21.90
2023-03-20T03:36:45.091Z,20.17
2023-03-20T03:39:25.845Z,21.87
2023-03-20T03:42:07.682Z,22.50
2023-03-20T03:44:45.154Z,20.37
2023-03-20T03:47:22.575Z,21.17
2023-03-20T03:49:59.442Z,19.67
2023-03-20T03:52:31.107Z,20.60
2023-03-20T03:55:05.475Z,17.85
2023-03-20T03:57:42.841Z,18.40
2023-03-20T04:00:20.396Z,16.53
2023-03-20T04:02:55.550Z,18.60
2023-03-20T04:05:27.545Z,19.50
2023-03-20T04:08:00.088Z,19.23
2023-03-20T04:10:28.466Z,21.63
2023-03-20T04:12:58.188Z,21.40
2023-03-20T04:15:27.792Z,17.77
2023-03-20T04:17:56.989Z,23.27
2023-03-20T04:20:25.357Z,18.30
2023-03-20T04:22:53.635Z,19.33
2023-03-20T04:25:25.965Z,20.70
2023-03-20T04:27:57.506Z,20.90
2023-03-20T04:30:34.672Z,19.40
2023-03-20T04:33:18.990Z,18.90
2023-03-20T04:36:11.444Z,16.90
2023-03-20T04:38:41.487Z,19.10
2023-03-20T04:41:10.619Z,17.50
2023-03-20T04:43:41.095Z,18.60
2023-03-20T04:46:09.753Z,20.87
2023-03-20T04:48:39.151Z,21.90
2023-03-20T04:51:08.271Z,21.13
2023-03-20T04:53:45.778Z,19.57
2023-03-20T04:56:14.237Z,19.30
2023-03-20T04:58:44.156Z,19.33
2023-03-20T05:01:12.656Z,17.40
2023-03-20T05:03:40.952Z,17.83
2023-03-20T05:06:10.606Z,14.93
2023-03-20T05:08:42.368Z,15.00
2023-03-20T05:11:10.934Z,14.90
2023-03-20T05:14:07.218Z,15.10
2023-03-20T05:16:45.318Z,14.83
2023-03-20T05:19:52.497Z,13.67
2023-03-20T05:22:42.756Z,13.60
2023-03-20T05:25:16.104Z,12.90
2023-03-20T05:28:03.267Z,14.30
2023-03-20T05:30:52.954Z,14.60
2023-03-20T05:33:47.417Z,14.97
2023-03-20T05:36:22.844Z,17.00
2023-03-20T05:39:11.599Z,14.23
2023-03-20T05:42:05.323Z,15.00
2023-03-20T05:44:36.387Z,16.07
2023-03-20T05:47:20.500Z,16.23
2023-03-20T05:50:06.228Z,15.97
2023-03-20T05:53:00.993Z,20.70
2023-03-20T05:55:55.649Z,20.60
2023-03-20T05:58:51.956Z,18.43
2023-03-20T06:01:42.822Z,19.27
2023-03-20T06:04:32.813Z,20.57
2023-03-20T06:07:15.618Z,21.43
2023-03-20T06:09:47.424Z,21.83
2023-03-20T06:12:16.326Z,22.83
2023-03-20T06:14:44.932Z,23.57
2023-03-20T06:17:13.720Z,22.33
2023-03-20T06:19:44.404Z,20.57
2023-03-20T06:22:12.715Z,22.00
2023-03-20T06:24:43.429Z,19.73
2023-03-20T06:27:13.954Z,20.40
2023-03-20T06:29:42.212Z,18.70
2023-03-20T06:32:18.340Z,20.67
2023-03-20T06:34:50.980Z,19.60
2023-03-20T06:37:20.625Z,19.03
2023-03-20T06:39:49.909Z,19.63
2023-03-20T06:42:18.424Z,17.90
2023-03-20T06:44:48.452Z,17.63
2023-03-20T06:47:24.784Z,16.17
2023-03-20T06:49:54.436Z,18.10
2023-03-20T06:52:23.398Z,14.73
2023-03-20T06:55:11.546Z,18.60
2023-03-20T06:57:40.338Z,20.23
2023-03-20T07:00:11.217Z,14.87
2023-03-20T07:02:39.491Z,13.17
2023-03-20T07:05:11.309Z,20.17
2023-03-20T07:07:39.663Z,13.00
2023-03-20T07:10:12.308Z,13.63
2023-03-20T07:12:40.877Z,12.13
2023-03-20T07:15:11.222Z,12.73
2023-03-20T07:17:39.665Z,11.67
2023-03-20T07:20:11.539Z,16.63
2023-03-20T07:22:41.485Z,19.03
2023-03-20T07:25:20.590Z,17.17
2023-03-20T07:27:54.466Z,16.83
2023-03-20T07:30:25.281Z,16.63
2023-03-20T07:32:56.245Z,15.30
2023-03-20T07:35:30.300Z,14.00
2023-03-20T07:37:58.604Z,16.50
2023-03-20T07:40:27.670Z,11.00
2023-03-20T07:42:59.783Z,11.13
2023-03-20T07:45:52.005Z,12.57
2023-03-20T07:48:21.308Z,11.97
2023-03-20T07:50:50.924Z,12.82
2023-03-20T07:53:19.427Z,11.03
2023-03-20T07:55:49.851Z,17.17
2023-03-20T07:58:18.558Z,13.80
2023-03-20T08:00:46.922Z,12.57
2023-03-20T08:03:15.228Z,11.73
2023-03-20T08:05:47.119Z,15.15
2023-03-20T08:08:17.379Z,14.93
2023-03-20T08:10:45.855Z,12.57
2023-03-20T08:13:14.184Z,13.63
2023-03-20T08:15:42.415Z,10.98
2023-03-20T08:18:10.662Z,12.88
2023-03-20T08:20:38.953Z,13.70
2023-03-20T08:23:07.804Z,12.38
2023-03-20T08:25:37.646Z,14.23
2023-03-20T08:28:06.173Z,16.80
2023-03-20T08:30:34.462Z,11.57
2023-03-20T08:33:02.897Z,12.93
2023-03-20T08:35:33.659Z,8.70
2023-03-20T08:38:14.702Z,10.40
2023-03-20T08:40:44.531Z,13.38
2023-03-20T08:43:13.085Z,10.13
2023-03-20T08:45:41.425Z,9.88
2023-03-20T08:48:10.010Z,12.80
2023-03-20T08:50:38.657Z,8.87
2023-03-20T08:53:07.482Z,12.10
2023-03-20T08:55:36.235Z,14.27
2023-03-20T08:58:06.156Z,12.10
2023-03-20T09:00:34.446Z,14.90
2023-03-20T09:03:02.721Z,11.67
2023-03-20T09:05:33.065Z,11.77
2023-03-20T09:08:02.351Z,15.10
2023-03-20T09:10:30.858Z,11.23
2023-03-20T09:12:59.083Z,10.90
2023-03-20T09:15:28.900Z,16.88
2023-03-20T09:17:57.298Z,10.30
2023-03-20T09:20:25.639Z,11.15
2023-03-20T09:22:53.968Z,13.23
2023-03-20T09:25:22.249Z,12.88
2023-03-20T09:27:55.215Z,10.93
2023-03-20T09:30:25.637Z,9.48
2023-03-20T09:32:55.272Z,12.15
2023-03-20T09:35:23.549Z,13.50
2023-03-20T09:37:52.634Z,11.90
2023-03-20T09:40:29.986Z,9.90
2023-03-20T09:43:10.801Z,13.77
2023-03-20T09:45:51.451Z,17.67
2023-03-20T09:48:34.046Z,11.68
2023-03-20T09:51:16.799Z,15.98
2023-03-20T09:53:54.004Z,13.88
2023-03-20T09:56:27.690Z,13.48
2023-03-20T09:58:59.377Z,12.73
2023-03-20T10:01:33.010Z,15.98
2023-03-20T10:04:09.701Z,14.77
2023-03-20T10:06:38.055Z,15.15
2023-03-20T10:09:17.546Z,16.80
2023-03-20T10:12:14.971Z,13.57
2023-03-20T10:15:02.074Z,16.58
2023-03-20T10:17:49.757Z,18.58
2023-03-20T10:20:34.266Z,13.98
2023-03-20T10:23:08.808Z,15.60
2023-03-20T10:25:43.299Z,17.17
2023-03-20T10:28:15.385Z,15.43
2023-03-20T10:31:01.086Z,17.15
2023-03-20T10:33:46.874Z,14.95
2023-03-20T10:36:36.012Z,16.55
2023-03-20T10:39:14.298Z,18.25
2023-03-20T10:41:54.747Z,17.27
2023-03-20T10:44:32.692Z,16.90
2023-03-20T10:47:05.331Z,15.15
2023-03-20T10:49:41.005Z,16.63
2023-03-20T10:52:17.865Z,18.25
2023-03-20T10:54:53.522Z,13.85
2023-03-20T10:57:26.140Z,19.27
2023-03-20T10:59:58.227Z,17.07
2023-03-20T11:02:30.972Z,15.05
2023-03-20T11:05:02.528Z,17.17
2023-03-20T11:07:36.373Z,17.67
2023-03-20T11:10:16.994Z,13.68
2023-03-20T11:12:47.617Z,13.10
2023-03-20T11:15:26.301Z,9.70
2023-03-20T11:17:59.860Z,16.60
2023-03-20T11:20:36.146Z,12.63
2023-03-20T11:23:08.932Z,13.95
2023-03-20T11:25:47.022Z,12.90
2023-03-20T11:28:30.952Z,23.75
2023-03-20T11:31:05.210Z,18.15
2023-03-20T11:33:40.301Z,14.63
2023-03-20T11:36:21.497Z,12.40
2023-03-20T11:38:53.835Z,15.13
2023-03-20T11:41:29.053Z,13.10
2023-03-20T11:43:57.318Z,15.77
2023-03-20T11:46:26.950Z,14.50
2023-03-20T11:49:21.494Z,13.88
2023-03-20T11:51:50.007Z,14.48
2023-03-20T11:54:23.728Z,13.32
2023-03-20T11:56:58.327Z,12.35
2023-03-20T11:59:32.949Z,13.77
2023-03-20T12:02:03.865Z,14.00
2023-03-20T12:04:37.505Z,12.10
2023-03-20T12:07:13.144Z,13.38
2023-03-20T12:09:49.921Z,16.00
2023-03-20T12:12:35.869Z,13.18
2023-03-20T12:15:19.328Z,16.55
2023-03-20T12:17:54.430Z,14.75
2023-03-20T12:20:37.817Z,14.18
2023-03-20T12:23:14.333Z,12.55
2023-03-20T12:25:54.949Z,10.73
2023-03-20T12:28:30.507Z,13.52
2023-03-20T12:31:20.811Z,19.33
2023-03-20T12:33:54.836Z,15.48
2023-03-20T12:36:33.144Z,12.10
2023-03-20T12:39:05.115Z,14.65
2023-03-20T12:41:50.553Z,13.60
2023-03-20T12:44:45.433Z,11.20
2023-03-20T12:47:36.969Z,12.75
2023-03-20T12:50:17.959Z,12.98
2023-03-20T12:53:01.317Z,13.23
2023-03-20T12:55:46.677Z,15.35
2023-03-20T12:58:30.842Z,10.30
2023-03-20T13:01:05.705Z,9.60
2023-03-20T13:04:20.934Z,14.73
2023-03-20T13:06:55.593Z,8.70
2023-03-20T13:09:49.069Z,9.93
2023-03-20T13:12:33.804Z,10.95
2023-03-20T13:15:21.948Z,10.88
2023-03-20T13:17:59.919Z,13.95
2023-03-20T13:20:32.964Z,10.85
2023-03-20T13:23:20.647Z,10.13
2023-03-20T13:26:13.923Z,14.52
2023-03-20T13:28:54.864Z,9.80
2023-03-20T13:31:41.597Z,9.73
2023-03-20T13:34:31.524Z,14.35
2023-03-20T13:37:23.353Z,11.77
2023-03-20T13:40:05.722Z,13.63
2023-03-20T13:42:43.230Z,10.45
2023-03-20T13:45:32.409Z,14.23
2023-03-20T13:48:20.266Z,13.63
2023-03-20T13:51:02.043Z,10.35
2023-03-20T13:53:39.477Z,12.68
2023-03-20T13:56:23.037Z,14.10
2023-03-20T13:59:04.964Z,10.85
2023-03-20T14:01:49.250Z,11.52
2023-03-20T14:04:23.591Z,12.52
2023-03-20T14:06:55.508Z,13.63
2023-03-20T14:09:33.959Z,11.13
2023-03-20T14:12:07.268Z,14.07
2023-03-20T14:14:44.385Z,10.02
2023-03-20T14:17:20.779Z,10.68
2023-03-20T14:19:52.081Z,14.40
2023-03-20T14:22:24.391Z,13.60
2023-03-20T14:25:00.819Z,11.32
2023-03-20T14:27:44.518Z,9.38
2023-03-20T14:30:41.821Z,8.80
2023-03-20T14:33:31.052Z,12.27
2023-03-20T14:36:22.210Z,11.65
2023-03-20T14:39:11.941Z,13.88
2023-03-20T14:42:00.249Z,11.77
2023-03-20T14:44:51.837Z,12.18
2023-03-20T14:47:31.156Z,13.70
2023-03-20T14:50:14.500Z,10.43
2023-03-20T14:53:01.610Z,9.88
2023-03-20T14:55:35.268Z,9.68
2023-03-20T14:58:59.768Z,10.82
2023-03-20T15:01:49.542Z,13.07
2023-03-20T15:04:31.157Z,13.90
2023-03-20T15:07:04.215Z,14.10
2023-03-20T15:09:40.983Z,11.98
2023-03-20T15:12:11.290Z,11.60
2023-03-20T15:14:45.976Z,11.98
2023-03-20T15:17:23.199Z,11.05
2023-03-20T15:19:51.946Z,14.05
2023-03-20T15:22:21.793Z,15.23
2023-03-20T15:24:57.114Z,10.50
2023-03-20T15:27:29.632Z,14.40
2023-03-20T15:30:01.782Z,9.80
2023-03-20T15:32:30.620Z,10.27
2023-03-20T15:34:59.403Z,11.95
2023-03-20T15:37:28.645Z,13.60
2023-03-20T15:40:00.246Z,13.68
2023-03-20T15:42:28.490Z,13.13
2023-03-20T15:44:57.713Z,12.93
2023-03-20T15:47:27.116Z,10.93
2023-03-20T15:49:58.178Z,13.38
2023-03-20T15:52:32.482Z,14.35
2023-03-20T15:55:07.741Z,17.95
2023-03-20T15:57:39.361Z,12.02
2023-03-20T16:00:15.351Z,14.65
2023-03-20T16:02:48.616Z,14.52
2023-03-20T16:05:19.286Z,19.25
2023-03-20T16:07:47.564Z,18.10
2023-03-20T16:10:25.966Z,22.30
2023-03-20T16:12:55.410Z,19.73
2023-03-20T16:15:27.651Z,20.23
2023-03-20T16:18:00.208Z,15.80
2023-03-20T16:20:37.660Z,17.40
2023-03-20T16:23:09.278Z,14.55
2023-03-20T16:25:39.465Z,15.82
2023-03-20T16:28:08.212Z,16.88
2023-03-20T16:30:37.518Z,16.48
2023-03-20T16:33:10.719Z,14.65
2023-03-20T16:35:44.303Z,16.38
2023-03-20T16:38:25.593Z,15.70
2023-03-20T16:40:58.652Z,18.02
2023-03-20T16:43:32.780Z,17.88
2023-03-20T16:46:07.685Z,17.58
2023-03-20T16:48:39.125Z,14.95
2023-03-20T16:51:18.165Z,20.08
2023-03-20T16:53:49.115Z,18.30
2023-03-20T16:56:28.432Z,18.92
2023-03-20T16:58:57.343Z,19.92
2023-03-20T17:01:29.665Z,15.88
2023-03-20T17:04:12.150Z,19.48
2023-03-20T17:06:48.530Z,18.45
2023-03-20T17:09:24.632Z,21.60
2023-03-20T17:12:03.511Z,19.15
2023-03-20T17:14:32.378Z,15.70
2023-03-20T17:17:01.124Z,17.23
2023-03-20T17:19:29.510Z,19.20
2023-03-20T17:21:59.694Z,19.30
2023-03-20T17:24:28.139Z,16.83
2023-03-20T17:26:57.937Z,19.63
2023-03-20T17:29:26.193Z,24.03
2023-03-20T17:31:54.675Z,21.05
2023-03-20T17:34:22.949Z,20.83
2023-03-20T17:36:51.306Z,21.83
2023-03-20T17:39:21.565Z,25.45
2023-03-20T17:41:50.137Z,26.65
2023-03-20T17:44:19.814Z,23.50
2023-03-20T17:46:57.881Z,18.93
2023-03-20T17:49:28.178Z,19.38
2023-03-20T17:51:57.666Z,23.43
2023-03-20T17:54:26.289Z,24.60
2023-03-20T17:56:54.691Z,21.58
2023-03-20T17:59:28.580Z,21.65
2023-03-20T18:01:57.160Z,23.65
2023-03-20T18:04:25.517Z,23.65
2023-03-20T18:06:53.908Z,22.65
2023-03-20T18:09:23.919Z,23.35
2023-03-20T18:11:52.219Z,26.05
2023-03-20T18:14:20.416Z,21.88
2023-03-20T18:16:50.177Z,22.40
2023-03-20T18:19:25.755Z,21.23
2023-03-20T18:21:54.145Z,21.50
2023-03-20T18:24:22.779Z,22.67
2023-03-20T18:26:52.864Z,17.92
2023-03-20T18:29:22.478Z,23.07
2023-03-20T18:31:52.258Z,20.63
2023-03-20T18:34:20.541Z,18.07
2023-03-20T18:36:48.756Z,18.95
2023-03-20T18:39:22.196Z,20.15
2023-03-20T18:41:52.295Z,18.63
2023-03-20T18:44:20.597Z,18.73
2023-03-20T18:46:48.909Z,19.00
2023-03-20T18:49:21.097Z,23.83
2023-03-20T18:51:49.677Z,20.55
2023-03-20T18:54:17.920Z,17.25
2023-03-20T18:56:46.564Z,19.77
2023-03-20T18:59:14.925Z,18.20
2023-03-20T19:01:43.321Z,20.25
2023-03-20T19:04:11.747Z,23.85
2023-03-20T19:06:41.560Z,20.30
2023-03-20T19:09:12.995Z,21.90
2023-03-20T19:11:41.216Z,24.13
2023-03-20T19:14:09.496Z,19.85
2023-03-20T19:16:38.792Z,25.77
2023-03-20T19:19:09.321Z,22.88
2023-03-20T19:21:37.682Z,25.55
2023-03-20T19:24:09.530Z,26.83
2023-03-20T19:26:41.924Z,24.67
2023-03-20T19:29:14.120Z,26.92
2023-03-20T19:31:42.531Z,21.45
2023-03-20T19:34:29.525Z,23.33
2023-03-20T19:36:59.140Z,24.05
2023-03-20T19:39:28.784Z,23.50
2023-03-20T19:42:09.713Z,25.30
2023-03-20T19:44:45.298Z,22.10
2023-03-20T19:47:13.559Z,27.40
2023-03-20T19:49:41.932Z,24.90
2023-03-20T19:52:28.578Z,24.67
2023-03-20T19:55:03.033Z,24.27
2023-03-20T19:57:31.948Z,26.13
2023-03-20T20:02:49.506Z,22.80
2023-03-20T20:05:28.368Z,27.70
2023-03-20T20:08:22.407Z,27.33
2023-03-20T20:10:49.819Z,23.35
2023-03-20T20:13:20.910Z,27.20
2023-03-20T20:15:51.663Z,26.57
2023-03-20T20:18:22.082Z,26.50
2023-03-20T20:21:59.667Z,21.63
2023-03-20T20:23:41.736Z,25.40
2023-03-20T20:26:11.353Z,24.48
2023-03-20T20:28:39.806Z,23.83
2023-03-20T20:31:08.077Z,25.73
2023-03-20T20:33:36.962Z,26.85
2023-03-20T20:37:01.857Z,22.52
2023-03-20T20:39:00.190Z,19.17
2023-03-20T20:41:30.133Z,24.92
2023-03-20T20:44:16.165Z,19.02
2023-03-20T20:46:44.904Z,21.55
2023-03-20T20:49:19.650Z,23.63
2023-03-20T20:51:48.583Z,21.60
2023-03-20T20:54:17.136Z,22.52
2023-03-20T20:56:46.797Z,22.15
2023-03-20T20:59:15.345Z,22.63
2023-03-20T21:01:43.856Z,19.65
2023-03-20T21:04:12.418Z,23.53
2023-03-20T21:07:07.471Z,20.45
2023-03-20T21:09:30.263Z,19.92
2023-03-20T21:12:00.791Z,20.42
2023-03-20T21:14:29.361Z,27.60
2023-03-20T21:17:00.921Z,24.07
2023-03-20T21:19:30.541Z,20.97
2023-03-20T21:21:58.722Z,21.70
2023-03-20T21:24:33.069Z,20.07
2023-03-20T21:27:05.356Z,22.07
2023-03-20T21:29:33.740Z,21.92
2023-03-20T21:32:02.164Z,18.95
2023-03-20T21:34:30.740Z,23.57
2023-03-20T21:37:17.922Z,23.43
2023-03-20T21:39:52.478Z,24.48
2023-03-20T21:42:22.289Z,21.08
2023-03-20T21:51:09.718Z,23.97
2023-03-20T21:54:07.877Z,26.75
2023-03-20T21:59:36.939Z,24.80
2023-03-20T22:02:10.385Z,25.50
2023-03-20T22:05:18.935Z,21.48
2023-03-20T22:07:57.998Z,22.47
2023-03-20T22:19:29.482Z,22.52
2023-03-20T22:25:02.917Z,20.43
2023-03-20T22:27:50.302Z,25.37
2023-03-20T22:33:42.399Z,23.30
2023-03-20T22:39:09.753Z,26.70
2023-03-20T22:44:47.766Z,23.63
2023-03-20T22:46:50.281Z,25.67
2023-03-20T22:49:19.952Z,22.47
2023-03-20T22:52:05.089Z,23.47
2023-03-20T22:54:36.757Z,21.67
2023-03-20T22:57:05.296Z,24.27
2023-03-20T22:59:33.646Z,23.97
2023-03-20T23:02:01.963Z,24.27
2023-03-20T23:04:31.593Z,25.93
2023-03-20T23:07:01.643Z,22.77
2023-03-20T23:09:30.483Z,26.58
2023-03-20T23:11:58.720Z,25.00
2023-03-20T23:14:30.792Z,25.97
2023-03-20T23:17:01.649Z,23.03
2023-03-20T23:19:37.840Z,26.67
2023-03-20T23:22:13.406Z,27.93
2023-03-20T23:24:42.393Z,28.73
2023-03-20T23:27:10.602Z,25.50
2023-03-20T23:29:38.908Z,25.27
2023-03-20T23:32:07.560Z,25.73
2023-03-20T23:34:37.922Z,25.40
2023-03-20T23:37:06.787Z,28.50
2023-03-20T23:39:35.391Z,24.70
2023-03-20T23:42:20.248Z,32.13
2023-03-20T23:44:57.288Z,24.73
2023-03-20T23:47:30.082Z,28.37
2023-03-20T23:50:06.531Z,25.37
2023-03-20T23:52:40.713Z,26.83
2023-03-20T23:55:21.370Z,27.83
2023-03-20T23:57:49.640Z,27.17
